Abbott Park, Illinois
Current Conditions -  °F | °C
As of 9:55 PM on Sunday 25 Jan 2015 (Local Time) from KUGN Reporting Station
Scattered Clouds Scattered Clouds  
Wind Chill: 16°   Ceiling: Unl
Heat Index: 25°   Visibility: 10mi
Dew Point: 14°   Wind: 9mph
Humidity: 63%   Direction: 40°NE
Pressure: 30"   Gusts: NA
Location:  42.3271°N, 87.865°W
Report Text: KUGN 260355Z AUTO 04008KT 10SM SCT031 M04/M10 A3000 RMK AO2 SLP173 T10391100
Loading
Personal Weather Stations






























Interactive Weather Map New forecast layout! Learn more

10-Day Weather Forecast

Advertisements
Track Severe Weather on mobile